createdAt,value
2022-09-10T00:01:26.620Z,4.80
2022-09-10T00:03:56.379Z,4.93
2022-09-10T00:06:27.524Z,9.80
2022-09-10T00:08:57.223Z,2.93
2022-09-10T00:11:26.098Z,6.53
2022-09-10T00:13:57.214Z,3.90
2022-09-10T00:16:26.396Z,4.70
2022-09-10T00:18:54.833Z,4.33
2022-09-10T00:21:22.796Z,2.80
2022-09-10T00:23:52.375Z,4.43
2022-09-10T00:26:22.660Z,3.73
2022-09-10T00:28:51.914Z,5.17
2022-09-10T00:31:21.727Z,10.43
2022-09-10T00:33:50.830Z,9.63
2022-09-10T00:36:21.558Z,3.17
2022-09-10T00:38:50.779Z,4.03
2022-09-10T00:41:22.835Z,5.57
2022-09-10T00:43:53.584Z,3.93
2022-09-10T00:46:31.577Z,4.60
2022-09-10T00:49:02.548Z,3.70
2022-09-10T00:51:34.399Z,4.90
2022-09-10T00:54:04.558Z,4.80
2022-09-10T00:56:34.681Z,3.47
2022-09-10T00:59:03.670Z,5.83
2022-09-10T01:01:33.543Z,3.53
2022-09-10T01:04:02.342Z,2.93
2022-09-10T01:06:30.903Z,4.93
2022-09-10T01:08:59.271Z,4.83
2022-09-10T01:11:46.419Z,4.60
2022-09-10T01:14:43.866Z,6.83
2022-09-10T01:17:22.447Z,6.33
2022-09-10T01:20:20.298Z,2.43
2022-09-10T01:23:04.768Z,1.80
2022-09-10T01:25:44.402Z,4.37
2022-09-10T01:28:19.062Z,5.60
2022-09-10T01:30:51.562Z,6.57
2022-09-10T01:33:27.231Z,3.13
2022-09-10T01:35:58.167Z,3.83
2022-09-10T01:38:31.710Z,4.33
2022-09-10T01:41:00.670Z,12.30
2022-09-10T01:43:34.799Z,8.53
2022-09-10T01:46:21.983Z,3.43
2022-09-10T01:49:06.519Z,4.23
2022-09-10T01:51:48.871Z,2.80
2022-09-10T01:54:36.984Z,3.13
2022-09-10T01:57:16.214Z,4.50
2022-09-10T01:59:54.263Z,4.47
2022-09-10T02:02:24.746Z,5.07
2022-09-10T02:04:54.424Z,6.33
2022-09-10T02:07:25.026Z,3.27
2022-09-10T02:09:54.792Z,3.73
2022-09-10T02:12:24.556Z,5.13
2022-09-10T02:15:11.493Z,6.50
2022-09-10T02:17:52.279Z,4.07
2022-09-10T02:20:22.007Z,4.10
2022-09-10T02:22:58.505Z,3.07
2022-09-10T02:25:31.682Z,3.40
2022-09-10T02:27:59.733Z,4.17
2022-09-10T02:30:29.159Z,4.77
2022-09-10T02:32:57.239Z,5.90
2022-09-10T02:35:25.324Z,2.10
2022-09-10T02:37:53.560Z,3.73
2022-09-10T02:40:21.575Z,1.40
2022-09-10T02:42:49.646Z,4.10
2022-09-10T02:45:23.152Z,5.33
2022-09-10T02:47:52.521Z,4.20
2022-09-10T02:50:20.813Z,5.27
2022-09-10T02:52:51.383Z,8.37
2022-09-10T02:55:19.646Z,3.13
2022-09-10T02:57:49.142Z,4.53
2022-09-10T03:00:17.197Z,7.87
2022-09-10T03:02:46.515Z,7.03
2022-09-10T03:05:16.279Z,6.40
2022-09-10T03:07:44.791Z,4.50
2022-09-10T03:10:12.818Z,5.40
2022-09-10T03:12:40.783Z,4.37
2022-09-10T03:15:10.063Z,7.40
2022-09-10T03:17:38.379Z,6.13
2022-09-10T03:20:07.645Z,4.37
2022-09-10T03:22:38.265Z,3.17
2022-09-10T03:25:07.986Z,8.10
2022-09-10T03:27:36.900Z,7.80
2022-09-10T03:30:09.690Z,4.13
2022-09-10T03:32:38.138Z,4.93
2022-09-10T03:35:10.081Z,6.10
2022-09-10T03:37:40.855Z,6.60
2022-09-10T03:40:10.729Z,7.50
2022-09-10T03:42:38.940Z,5.10
2022-09-10T03:45:08.445Z,4.27
2022-09-10T03:47:38.406Z,9.77
2022-09-10T03:50:08.000Z,7.63
2022-09-10T03:52:37.585Z,3.03
2022-09-10T03:55:08.261Z,7.70
2022-09-10T03:57:36.466Z,7.50
2022-09-10T04:00:06.257Z,7.83
2022-09-10T04:02:44.208Z,12.37
2022-09-10T04:05:14.135Z,7.27
2022-09-10T04:07:42.896Z,7.93
2022-09-10T04:10:13.319Z,7.73
2022-09-10T04:12:42.388Z,8.13
2022-09-10T04:15:11.983Z,9.50
2022-09-10T04:17:40.232Z,10.63
2022-09-10T04:20:09.542Z,7.97
2022-09-10T04:22:37.750Z,6.37
2022-09-10T04:25:06.528Z,7.87
2022-09-10T04:27:36.224Z,9.13
2022-09-10T04:30:04.976Z,6.63
2022-09-10T04:32:33.135Z,5.37
2022-09-10T04:35:02.497Z,12.53
2022-09-10T04:37:31.819Z,7.70
2022-09-10T04:40:01.005Z,11.43
2022-09-10T04:42:31.787Z,4.30
2022-09-10T04:45:01.671Z,7.30
2022-09-10T04:47:30.213Z,5.50
2022-09-10T04:49:58.646Z,5.60
2022-09-10T04:52:27.908Z,5.57
2022-09-10T04:54:56.247Z,8.10
2022-09-10T04:57:25.951Z,12.17
2022-09-10T04:59:55.626Z,6.20
2022-09-10T05:02:25.720Z,6.17
2022-09-10T05:04:54.083Z,6.63
2022-09-10T05:07:22.466Z,13.40
2022-09-10T05:09:50.630Z,11.30
2022-09-10T05:12:20.285Z,8.40
2022-09-10T05:14:48.975Z,13.03
2022-09-10T05:17:17.314Z,8.83
2022-09-10T05:19:46.816Z,8.53
2022-09-10T05:22:15.050Z,4.73
2022-09-10T05:24:44.017Z,10.73
2022-09-10T05:27:11.969Z,5.70
2022-09-10T05:29:40.038Z,8.50
2022-09-10T05:32:09.349Z,8.07
2022-09-10T05:34:39.662Z,10.10
2022-09-10T05:37:09.034Z,6.13
2022-09-10T05:39:37.728Z,10.33
2022-09-10T05:42:06.162Z,8.33
2022-09-10T05:44:36.351Z,5.93
2022-09-10T05:47:04.931Z,7.57
2022-09-10T05:49:33.831Z,13.10
2022-09-10T05:52:03.945Z,6.83
2022-09-10T05:54:33.405Z,14.00
2022-09-10T05:57:01.653Z,8.23
2022-09-10T05:59:30.802Z,14.43
2022-09-10T06:01:58.925Z,9.00
2022-09-10T06:04:28.026Z,13.23
2022-09-10T06:06:56.458Z,11.20
2022-09-10T06:09:24.867Z,12.53
2022-09-10T06:11:59.759Z,6.60
2022-09-10T06:14:27.953Z,9.13
2022-09-10T06:16:55.937Z,12.90
2022-09-10T06:19:25.939Z,13.43
2022-09-10T06:21:55.812Z,11.23
2022-09-10T06:24:24.404Z,11.27
2022-09-10T06:26:55.773Z,7.30
2022-09-10T06:29:26.695Z,10.00
2022-09-10T06:31:55.199Z,11.10
2022-09-10T06:34:23.311Z,11.80
2022-09-10T06:36:53.327Z,10.77
2022-09-10T06:39:21.745Z,13.30
2022-09-10T06:41:53.186Z,16.90
2022-09-10T06:44:41.238Z,16.97
2022-09-10T06:48:06.790Z,22.17
2022-09-10T06:50:12.514Z,9.70
2022-09-10T06:52:42.395Z,14.13
2022-09-10T06:55:12.739Z,11.13
2022-09-10T06:57:45.842Z,11.57
2022-09-10T07:00:17.534Z,11.77
2022-09-10T07:02:50.530Z,12.40
2022-09-10T07:05:18.710Z,17.40
2022-09-10T07:07:47.323Z,5.70
2022-09-10T07:10:16.098Z,7.83
2022-09-10T07:12:44.718Z,17.10
2022-09-10T07:15:13.498Z,8.37
2022-09-10T07:17:42.812Z,7.53
2022-09-10T07:20:12.986Z,7.77
2022-09-10T07:22:48.617Z,12.27
2022-09-10T07:25:20.656Z,18.63
2022-09-10T07:28:04.493Z,4.87
2022-09-10T07:30:35.778Z,5.93
2022-09-10T07:33:05.264Z,8.53
2022-09-10T07:35:35.382Z,8.27
2022-09-10T07:38:03.499Z,18.70
2022-09-10T07:40:31.722Z,6.20
2022-09-10T07:43:00.177Z,3.33
2022-09-10T07:45:30.254Z,10.20
2022-09-10T07:47:59.791Z,4.63
2022-09-10T07:50:29.186Z,3.20
2022-09-10T07:52:57.232Z,9.50
2022-09-10T07:55:26.669Z,6.30
2022-09-10T07:57:59.876Z,3.67
2022-09-10T08:00:29.111Z,3.80
2022-09-10T08:03:00.564Z,3.90
2022-09-10T08:05:31.095Z,7.00
2022-09-10T08:08:01.654Z,3.27
2022-09-10T08:10:30.352Z,5.83
2022-09-10T08:12:59.403Z,4.97
2022-09-10T08:15:27.819Z,4.27
2022-09-10T08:17:56.601Z,7.67
2022-09-10T08:20:25.108Z,3.27
2022-09-10T08:22:58.230Z,3.70
2022-09-10T08:25:26.546Z,5.07
2022-09-10T08:27:55.492Z,5.60
2022-09-10T08:30:24.170Z,3.93
2022-09-10T08:32:54.688Z,3.50
2022-09-10T08:35:22.861Z,5.70
2022-09-10T08:37:51.098Z,4.73
2022-09-10T08:40:21.847Z,6.90
2022-09-10T08:42:52.770Z,3.23
2022-09-10T08:45:26.187Z,10.87
2022-09-10T08:48:03.179Z,3.77
2022-09-10T08:50:40.538Z,2.40
2022-09-10T08:53:26.689Z,2.07
2022-09-10T08:56:02.914Z,2.03
2022-09-10T08:58:41.092Z,3.87
2022-09-10T09:01:15.896Z,1.33
2022-09-10T09:03:47.110Z,1.10
2022-09-10T09:06:27.640Z,1.73
2022-09-10T09:08:56.115Z,1.30
2022-09-10T09:11:40.207Z,1.20
2022-09-10T09:14:39.902Z,2.40
2022-09-10T09:17:24.798Z,1.70
2022-09-10T09:20:02.387Z,3.70
2022-09-10T09:22:41.649Z,1.13
2022-09-10T09:25:23.669Z,3.53
2022-09-10T09:27:56.350Z,1.17
2022-09-10T09:30:31.936Z,1.83
2022-09-10T09:33:13.485Z,0.80
2022-09-10T09:35:47.634Z,2.40
2022-09-10T09:38:22.171Z,0.60
2022-09-10T09:40:56.215Z,1.93
2022-09-10T09:43:35.551Z,0.97
2022-09-10T09:46:04.433Z,1.53
2022-09-10T09:48:40.337Z,0.90
2022-09-10T09:51:11.779Z,2.90
2022-09-10T09:53:42.289Z,1.67
2022-09-10T09:56:16.469Z,1.87
2022-09-10T09:58:49.578Z,1.47
2022-09-10T10:01:21.634Z,1.20
2022-09-10T10:03:53.004Z,0.83
2022-09-10T10:06:24.518Z,1.07
2022-09-10T10:09:01.855Z,1.20
2022-09-10T10:11:48.574Z,1.03
2022-09-10T10:14:41.356Z,1.63
2022-09-10T10:17:30.171Z,2.60
2022-09-10T10:20:00.707Z,1.90
2022-09-10T10:22:31.933Z,0.73
2022-09-10T10:25:01.167Z,0.97
2022-09-10T10:27:33.741Z,1.40
2022-09-10T10:30:08.036Z,1.03
2022-09-10T10:32:44.734Z,10.90
2022-09-10T10:35:24.273Z,1.10
2022-09-10T10:38:17.157Z,0.80
2022-09-10T10:40:56.608Z,1.23
2022-09-10T10:43:38.290Z,0.80
2022-09-10T10:46:17.038Z,0.90
2022-09-10T10:49:03.983Z,1.00
2022-09-10T10:51:44.049Z,1.00
2022-09-10T10:54:45.253Z,1.50
2022-09-10T10:57:24.610Z,1.67
2022-09-10T10:59:57.232Z,2.80
2022-09-10T11:02:39.415Z,1.20
2022-09-10T11:05:21.508Z,3.00
2022-09-10T11:07:50.419Z,2.13
2022-09-10T11:10:24.183Z,1.83
2022-09-10T11:12:58.885Z,1.97
2022-09-10T11:15:33.350Z,1.83
2022-09-10T11:18:08.560Z,1.00
2022-09-10T11:20:42.409Z,1.27
2022-09-10T11:23:22.222Z,0.90
2022-09-10T11:25:57.893Z,1.57
2022-09-10T11:28:31.091Z,0.80
2022-09-10T11:31:05.994Z,4.00
2022-09-10T11:33:41.824Z,1.67
2022-09-10T11:36:17.981Z,0.90
2022-09-10T11:38:53.507Z,1.07
2022-09-10T11:41:24.661Z,1.00
2022-09-10T11:43:59.572Z,1.63
2022-09-10T11:46:32.733Z,2.13
2022-09-10T11:49:07.659Z,1.83
2022-09-10T11:51:37.975Z,1.83
2022-09-10T11:54:12.949Z,2.10
2022-09-10T11:56:56.063Z,1.73
2022-09-10T11:59:47.988Z,2.47
2022-09-10T12:02:48.536Z,2.10
2022-09-10T12:05:26.307Z,2.07
2022-09-10T12:08:04.720Z,3.00
2022-09-10T12:10:39.640Z,2.03
2022-09-10T12:13:10.424Z,1.77
2022-09-10T12:15:39.115Z,1.53
2022-09-10T12:18:13.422Z,2.77
2022-09-10T12:20:49.637Z,2.73
2022-09-10T12:23:20.044Z,2.13
2022-09-10T12:25:58.589Z,3.00
2022-09-10T12:28:59.949Z,1.53
2022-09-10T12:31:28.731Z,1.23
2022-09-10T12:34:19.507Z,1.67
2022-09-10T12:37:24.040Z,1.40
2022-09-10T12:40:34.024Z,1.80
2022-09-10T12:43:43.658Z,1.30
2022-09-10T12:46:19.994Z,2.33
2022-09-10T12:48:50.904Z,1.93
2022-09-10T12:51:31.873Z,1.23
2022-09-10T12:54:20.228Z,4.00
2022-09-10T12:57:08.154Z,1.23
2022-09-10T13:00:02.005Z,1.10
2022-09-10T13:02:33.284Z,1.53
2022-09-10T13:05:06.185Z,1.47
2022-09-10T13:07:41.620Z,2.33
2022-09-10T13:10:22.049Z,1.10
2022-09-10T13:12:55.125Z,0.97
2022-09-10T13:15:26.186Z,1.23
2022-09-10T13:18:27.727Z,1.20
2022-09-10T13:20:55.993Z,1.73
2022-09-10T13:23:47.479Z,1.27
2022-09-10T13:26:48.309Z,2.30
2022-09-10T13:29:34.203Z,1.47
2022-09-10T13:32:06.292Z,1.10
2022-09-10T13:34:58.490Z,2.03
2022-09-10T13:37:46.627Z,1.70
2022-09-10T13:40:43.868Z,1.97
2022-09-10T13:43:26.197Z,1.87
2022-09-10T13:45:58.834Z,1.20
2022-09-10T13:48:30.714Z,3.60
2022-09-10T13:51:11.614Z,1.53
2022-09-10T13:53:43.432Z,3.83
2022-09-10T13:56:17.836Z,1.47
2022-09-10T13:58:50.375Z,3.37
2022-09-10T14:01:19.137Z,4.37
2022-09-10T14:03:47.376Z,3.10
2022-09-10T14:06:21.565Z,3.03
2022-09-10T14:08:54.895Z,3.93
2022-09-10T14:11:25.821Z,6.87
2022-09-10T14:14:00.301Z,4.20
2022-09-10T14:16:34.617Z,7.20
2022-09-10T14:19:05.886Z,3.40
2022-09-10T14:21:34.397Z,5.73
2022-09-10T14:24:03.247Z,2.30
2022-09-10T14:26:33.648Z,4.13
2022-09-10T14:29:04.829Z,3.60
2022-09-10T14:31:36.298Z,3.00
2022-09-10T14:34:30.854Z,5.03
2022-09-10T14:36:59.770Z,6.23
2022-09-10T14:39:29.048Z,2.67
2022-09-10T14:42:11.315Z,7.77
2022-09-10T14:44:44.367Z,6.80
2022-09-10T14:47:24.433Z,1.83
2022-09-10T14:49:52.782Z,5.70
2022-09-10T14:52:22.387Z,5.70
2022-09-10T14:54:50.443Z,3.53
2022-09-10T14:57:19.636Z,3.93
2022-09-10T14:59:49.213Z,4.33
2022-09-10T15:02:20.774Z,4.43
2022-09-10T15:04:48.907Z,4.60
2022-09-10T15:07:16.983Z,4.73
2022-09-10T15:09:45.054Z,2.77
2022-09-10T15:12:19.481Z,4.30
2022-09-10T15:14:48.876Z,5.53
2022-09-10T15:17:18.457Z,5.80
2022-09-10T15:19:48.239Z,3.70
2022-09-10T15:22:23.678Z,5.60
2022-09-10T15:25:09.086Z,4.20
2022-09-10T15:27:38.316Z,6.13
2022-09-10T15:30:09.476Z,4.07
2022-09-10T15:32:37.521Z,5.80
2022-09-10T15:35:06.672Z,4.73
2022-09-10T15:37:34.753Z,3.27
2022-09-10T15:40:03.529Z,7.43
2022-09-10T15:42:31.836Z,6.13
2022-09-10T15:44:59.878Z,6.43
2022-09-10T15:47:29.234Z,3.07
2022-09-10T15:49:57.558Z,8.10
2022-09-10T15:52:26.232Z,7.13
2022-09-10T15:54:54.751Z,3.50
2022-09-10T15:57:22.793Z,4.20
2022-09-10T15:59:50.860Z,7.13
2022-09-10T16:02:19.224Z,15.80
2022-09-10T16:04:48.792Z,6.43
2022-09-10T16:07:16.795Z,7.80
2022-09-10T16:09:44.840Z,6.53
2022-09-10T16:12:13.038Z,5.83
2022-09-10T16:14:44.293Z,6.60
2022-09-10T16:17:12.687Z,7.33
2022-09-10T16:19:40.932Z,6.20
2022-09-10T16:22:10.505Z,6.40
2022-09-10T16:24:38.557Z,4.77
2022-09-10T16:27:06.743Z,3.30
2022-09-10T16:29:35.156Z,5.90
2022-09-10T16:32:03.730Z,3.33
2022-09-10T16:34:31.873Z,5.30
2022-09-10T16:36:59.941Z,6.13
2022-09-10T16:39:29.606Z,5.77
2022-09-10T16:41:57.993Z,4.40
2022-09-10T16:44:26.171Z,7.80
2022-09-10T16:46:56.148Z,6.43
2022-09-10T16:49:24.376Z,4.40
2022-09-10T16:51:52.612Z,13.37
2022-09-10T16:54:21.434Z,3.43
2022-09-10T16:56:51.292Z,4.03
2022-09-10T16:59:21.362Z,3.00
2022-09-10T17:01:51.597Z,5.53
2022-09-10T17:04:27.549Z,3.60
2022-09-10T17:06:56.909Z,8.90
2022-09-10T17:09:25.754Z,3.43
2022-09-10T17:11:55.463Z,5.73
2022-09-10T17:14:24.373Z,4.80
2022-09-10T17:16:53.109Z,7.40
2022-09-10T17:19:26.004Z,6.83
2022-09-10T17:21:56.059Z,7.67
2022-09-10T17:24:26.166Z,6.17
2022-09-10T17:26:56.257Z,6.30
2022-09-10T17:29:26.124Z,5.90
2022-09-10T17:31:55.030Z,9.27
2022-09-10T17:34:24.387Z,5.17
2022-09-10T17:36:53.123Z,7.73
2022-09-10T17:39:21.479Z,6.17
2022-09-10T17:41:50.134Z,11.80
2022-09-10T17:44:19.558Z,7.60
2022-09-10T17:46:47.586Z,11.17
2022-09-10T17:49:16.365Z,5.50
2022-09-10T17:51:44.920Z,9.50
2022-09-10T17:54:13.817Z,6.80
2022-09-10T17:56:43.324Z,6.50
2022-09-10T17:59:14.202Z,8.70
2022-09-10T18:01:43.767Z,5.90
2022-09-10T18:04:14.267Z,4.97
2022-09-10T18:06:43.662Z,3.73
2022-09-10T18:09:12.285Z,6.20
2022-09-10T18:11:42.013Z,4.90
2022-09-10T18:14:14.301Z,6.60
2022-09-10T18:16:44.323Z,4.60
2022-09-10T18:19:15.779Z,7.47
2022-09-10T18:21:46.245Z,4.43
2022-09-10T18:24:16.822Z,6.50
2022-09-10T18:26:49.267Z,6.40
2022-09-10T18:29:19.584Z,10.30
2022-09-10T18:31:50.923Z,6.20
2022-09-10T18:34:23.540Z,5.37
2022-09-10T18:36:54.602Z,5.80
2022-09-10T18:39:23.848Z,3.90
2022-09-10T18:41:52.388Z,3.80
2022-09-10T18:44:22.185Z,4.13
2022-09-10T18:46:53.650Z,5.17
2022-09-10T18:49:24.281Z,23.47
2022-09-10T18:51:53.611Z,6.17
2022-09-10T18:54:23.111Z,5.80
2022-09-10T18:56:53.247Z,6.27
2022-09-10T18:59:23.131Z,4.73
2022-09-10T19:01:55.799Z,7.37
2022-09-10T19:04:25.793Z,5.90
2022-09-10T19:06:54.375Z,7.00
2022-09-10T19:09:24.619Z,4.50
2022-09-10T19:11:54.057Z,5.30
2022-09-10T19:14:25.797Z,7.10
2022-09-10T19:16:56.931Z,5.10
2022-09-10T19:19:27.346Z,5.90
2022-09-10T19:21:59.408Z,3.30
2022-09-10T19:24:44.183Z,3.43
2022-09-10T19:27:15.700Z,5.53
2022-09-10T19:29:44.255Z,4.43
2022-09-10T19:32:15.069Z,5.63
2022-09-10T19:34:43.500Z,4.70
2022-09-10T19:37:11.653Z,5.83
2022-09-10T19:39:39.760Z,3.53
2022-09-10T19:42:07.992Z,3.53
2022-09-10T19:44:36.047Z,3.50
2022-09-10T19:47:04.402Z,3.30
2022-09-10T19:49:34.067Z,2.60
2022-09-10T19:52:04.180Z,3.27
2022-09-10T19:54:32.277Z,3.60
2022-09-10T19:57:00.297Z,3.30
2022-09-10T19:59:29.068Z,2.87
2022-09-10T20:01:57.375Z,4.07
2022-09-10T20:04:25.737Z,5.87
2022-09-10T20:06:55.123Z,4.83
2022-09-10T20:09:23.358Z,7.20
2022-09-10T20:11:51.461Z,3.33
2022-09-10T20:14:20.152Z,3.30
2022-09-10T20:16:48.415Z,4.27
2022-09-10T20:19:18.697Z,4.00
2022-09-10T20:21:47.596Z,44.80
2022-09-10T20:24:17.756Z,84.27
2022-09-10T20:26:46.364Z,131.10
2022-09-10T20:29:16.445Z,201.93
2022-09-10T20:31:46.211Z,241.17
2022-09-10T20:34:17.683Z,212.80
2022-09-10T20:36:46.045Z,88.10
2022-09-10T20:39:16.911Z,28.03
2022-09-10T20:41:46.674Z,18.70
2022-09-10T20:44:17.055Z,10.20
2022-09-10T20:46:45.193Z,7.13
2022-09-10T20:49:15.856Z,7.17
2022-09-10T20:51:44.830Z,5.07
2022-09-10T20:54:14.735Z,6.97
2022-09-10T20:56:43.312Z,4.00
2022-09-10T20:59:15.445Z,4.20
2022-09-10T21:01:45.823Z,5.00
2022-09-10T21:04:14.905Z,5.40
2022-09-10T21:06:43.588Z,5.07
2022-09-10T21:09:12.177Z,5.40
2022-09-10T21:11:40.408Z,4.20
2022-09-10T21:14:09.331Z,4.13
2022-09-10T21:16:41.227Z,6.00
2022-09-10T21:19:11.675Z,6.80
2022-09-10T21:21:40.572Z,8.93
2022-09-10T21:24:11.803Z,6.13
2022-09-10T21:26:43.166Z,4.07
2022-09-10T21:29:13.272Z,7.20
2022-09-10T21:31:43.279Z,9.27
2022-09-10T21:34:11.398Z,6.93
2022-09-10T21:36:41.000Z,5.30
2022-09-10T21:39:13.686Z,6.97
2022-09-10T21:41:44.050Z,5.10
2022-09-10T21:44:14.554Z,8.13
2022-09-10T21:46:44.401Z,5.30
2022-09-10T21:49:12.868Z,9.40
2022-09-10T21:51:41.289Z,12.40
2022-09-10T21:54:14.244Z,11.23
2022-09-10T21:56:42.290Z,7.23
2022-09-10T21:59:11.991Z,10.07
2022-09-10T22:01:41.862Z,9.10
2022-09-10T22:04:12.207Z,6.70
2022-09-10T22:06:40.420Z,6.10
2022-09-10T22:09:10.451Z,8.07
2022-09-10T22:11:41.794Z,6.40
2022-09-10T22:14:13.911Z,7.60
2022-09-10T22:16:42.075Z,5.90
2022-09-10T22:19:15.080Z,5.87
2022-09-10T22:21:43.370Z,6.83
2022-09-10T22:24:19.082Z,9.43
2022-09-10T22:26:48.123Z,7.73
2022-09-10T22:29:18.174Z,9.00
2022-09-10T22:31:46.700Z,5.33
2022-09-10T22:34:17.997Z,7.40
2022-09-10T22:36:48.052Z,8.30
2022-09-10T22:39:17.868Z,9.83
2022-09-10T22:41:46.530Z,6.10
2022-09-10T22:44:14.751Z,6.60
2022-09-10T22:46:42.938Z,6.90
2022-09-10T22:49:11.574Z,7.80
2022-09-10T22:51:41.795Z,9.23
2022-09-10T22:54:11.483Z,7.83
2022-09-10T22:56:40.296Z,9.03
2022-09-10T22:59:11.965Z,7.20
2022-09-10T23:01:40.324Z,6.17
2022-09-10T23:04:09.311Z,11.40
2022-09-10T23:06:39.854Z,9.90
2022-09-10T23:09:09.623Z,7.07
2022-09-10T23:11:38.617Z,6.70
2022-09-10T23:14:09.073Z,9.30
2022-09-10T23:16:39.418Z,8.57
2022-09-10T23:19:12.792Z,13.20
2022-09-10T23:21:44.511Z,12.70
2022-09-10T23:24:14.221Z,7.60
2022-09-10T23:26:42.815Z,9.20
2022-09-10T23:29:11.159Z,7.93
2022-09-10T23:31:40.870Z,8.93
2022-09-10T23:34:11.773Z,6.50
2022-09-10T23:36:42.423Z,8.13
2022-09-10T23:39:13.567Z,7.97
2022-09-10T23:41:42.374Z,8.87
2022-09-10T23:44:10.631Z,9.70
2022-09-10T23:46:39.109Z,7.73
2022-09-10T23:49:07.526Z,7.67
2022-09-10T23:51:36.607Z,7.77
2022-09-10T23:54:06.418Z,9.20
2022-09-10T23:56:34.478Z,8.37
2022-09-10T23:59:03.374Z,10.00
